createdAt,value
2022-12-26T00:02:09.545Z,18.60
2022-12-26T00:04:49.739Z,23.30
2022-12-26T00:07:24.938Z,22.70
2022-12-26T00:09:56.792Z,23.48
2022-12-26T00:12:28.727Z,21.67
2022-12-26T00:15:00.761Z,22.58
2022-12-26T00:17:32.858Z,21.70
2022-12-26T00:20:05.374Z,23.52
2022-12-26T00:22:37.366Z,21.40
2022-12-26T00:25:10.847Z,23.48
2022-12-26T00:27:42.935Z,22.92
2022-12-26T00:30:15.129Z,23.13
2022-12-26T00:32:47.170Z,21.55
2022-12-26T00:35:19.101Z,20.88
2022-12-26T00:37:51.042Z,20.48
2022-12-26T00:40:23.831Z,23.10
2022-12-26T00:42:55.774Z,21.40
2022-12-26T00:45:27.725Z,22.38
2022-12-26T00:47:59.684Z,20.48
2022-12-26T00:50:34.890Z,19.30
2022-12-26T00:53:07.069Z,21.67
2022-12-26T00:55:39.243Z,18.83
2022-12-26T00:58:11.222Z,19.45
2022-12-26T01:00:43.265Z,19.25
2022-12-26T01:03:15.720Z,21.27
2022-12-26T01:05:51.943Z,18.40
2022-12-26T01:08:25.035Z,20.50
2022-12-26T01:10:57.133Z,22.70
2022-12-26T01:13:29.023Z,23.85
2022-12-26T01:16:01.460Z,21.92
2022-12-26T01:18:34.792Z,22.15
2022-12-26T01:21:10.222Z,24.83
2022-12-26T01:23:42.151Z,23.75
2022-12-26T01:26:17.736Z,24.17
2022-12-26T01:28:53.265Z,23.85
2022-12-26T01:31:25.249Z,21.92
2022-12-26T01:33:57.191Z,28.63
2022-12-26T01:36:29.076Z,25.23
2022-12-26T01:39:01.041Z,21.15
2022-12-26T01:41:33.368Z,26.52
2022-12-26T01:44:26.729Z,22.45
2022-12-26T01:46:58.929Z,22.38
2022-12-26T01:49:44.669Z,26.40
2022-12-26T01:52:27.879Z,22.67
2022-12-26T01:55:00.650Z,25.88
2022-12-26T01:57:42.539Z,23.33
2022-12-26T02:00:15.374Z,23.13
2022-12-26T02:03:07.260Z,23.45
2022-12-26T02:05:39.849Z,25.00
2022-12-26T02:08:16.571Z,24.05
2022-12-26T02:11:16.617Z,23.52
2022-12-26T02:13:48.856Z,21.33
2022-12-26T02:16:21.289Z,26.98
2022-12-26T02:18:53.235Z,21.92
2022-12-26T02:21:55.762Z,21.90
2022-12-26T02:24:41.056Z,22.75
2022-12-26T02:27:25.742Z,25.23
2022-12-26T02:30:07.140Z,21.70
2022-12-26T02:32:57.595Z,24.90
2022-12-26T02:35:35.778Z,23.23
2022-12-26T02:38:31.812Z,25.48
2022-12-26T02:41:11.586Z,24.70
2022-12-26T02:43:58.602Z,23.50
2022-12-26T02:47:13.436Z,24.08
2022-12-26T02:50:38.448Z,26.52
2022-12-26T02:53:39.672Z,24.65
2022-12-26T02:56:48.191Z,23.52
2022-12-26T02:59:57.232Z,24.83
2022-12-26T03:02:55.103Z,25.33
2022-12-26T03:05:54.078Z,20.38
2022-12-26T03:08:55.774Z,22.85
2022-12-26T03:14:26.523Z,24.50
2022-12-26T03:17:20.967Z,23.50
2022-12-26T03:20:04.093Z,25.25
2022-12-26T03:22:42.216Z,23.73
2022-12-26T03:26:05.232Z,23.30
2022-12-26T03:28:37.788Z,24.50
2022-12-26T03:31:13.245Z,24.27
2022-12-26T03:34:05.464Z,24.15
2022-12-26T03:37:02.019Z,26.52
2022-12-26T03:39:58.719Z,24.08
2022-12-26T03:43:04.251Z,24.30
2022-12-26T03:46:10.763Z,26.05
2022-12-26T03:49:19.565Z,24.08
2022-12-26T03:52:15.905Z,24.92
2022-12-26T03:55:29.338Z,28.73
2022-12-26T03:58:25.341Z,26.85
2022-12-26T04:01:18.341Z,25.63
2022-12-26T04:04:10.520Z,24.73
2022-12-26T04:07:20.923Z,25.50
2022-12-26T04:10:28.018Z,24.60
2022-12-26T04:13:20.940Z,25.70
2022-12-26T04:16:20.361Z,27.10
2022-12-26T04:19:26.245Z,28.40
2022-12-26T04:22:32.656Z,26.40
2022-12-26T04:25:50.042Z,27.65
2022-12-26T04:28:38.230Z,28.63
2022-12-26T04:31:51.677Z,28.20
2022-12-26T04:34:56.009Z,30.27
2022-12-26T04:37:49.451Z,32.50
2022-12-26T04:40:47.533Z,36.40
2022-12-26T04:43:47.033Z,35.72
2022-12-26T04:46:24.771Z,31.55
2022-12-26T04:49:15.907Z,32.35
2022-12-26T04:51:48.548Z,34.15
2022-12-26T04:54:20.425Z,35.60
2022-12-26T04:56:52.726Z,33.45
2022-12-26T04:59:25.542Z,28.85
2022-12-26T05:02:16.084Z,31.95
2022-12-26T05:05:06.642Z,28.75
2022-12-26T05:07:57.218Z,31.85
2022-12-26T05:10:29.399Z,32.22
2022-12-26T05:13:01.367Z,29.95
2022-12-26T05:15:53.471Z,31.08
2022-12-26T05:18:43.834Z,30.10
2022-12-26T05:21:37.544Z,30.85
2022-12-26T05:24:36.738Z,31.08
2022-12-26T05:27:34.516Z,30.10
2022-12-26T05:30:07.896Z,32.63
2022-12-26T05:32:58.454Z,29.55
2022-12-26T05:35:30.467Z,32.45
2022-12-26T05:38:03.137Z,27.60
2022-12-26T05:40:36.179Z,29.63
2022-12-26T05:43:08.472Z,35.33
2022-12-26T05:45:40.400Z,33.88
2022-12-26T05:48:12.283Z,30.85
2022-12-26T05:50:44.282Z,29.73
2022-12-26T05:53:16.205Z,30.75
2022-12-26T05:55:48.098Z,30.83
2022-12-26T05:58:20.394Z,32.58
2022-12-26T06:00:52.301Z,34.60
2022-12-26T06:03:24.362Z,30.83
2022-12-26T06:05:57.672Z,30.58
2022-12-26T06:08:29.806Z,28.75
2022-12-26T06:11:09.466Z,33.35
2022-12-26T06:13:42.194Z,36.90
2022-12-26T06:16:16.410Z,30.90
2022-12-26T06:18:49.707Z,30.33
2022-12-26T06:21:22.479Z,28.65
2022-12-26T06:23:54.429Z,30.95
2022-12-26T06:26:26.779Z,31.40
2022-12-26T06:28:58.823Z,31.10
2022-12-26T06:31:30.898Z,30.98
2022-12-26T06:34:02.867Z,26.70
2022-12-26T06:36:34.828Z,31.65
2022-12-26T06:39:06.792Z,29.98
2022-12-26T06:41:38.792Z,28.13
2022-12-26T06:44:17.716Z,33.03
2022-12-26T06:46:50.316Z,28.25
2022-12-26T06:49:26.210Z,33.35
2022-12-26T06:52:00.732Z,28.73
2022-12-26T06:54:32.665Z,33.40
2022-12-26T06:57:04.590Z,39.90
2022-12-26T06:59:36.486Z,38.22
2022-12-26T07:02:11.323Z,33.83
2022-12-26T07:04:43.472Z,35.50
2022-12-26T07:07:15.522Z,30.80
2022-12-26T07:09:47.441Z,32.00
2022-12-26T07:12:21.794Z,38.10
2022-12-26T07:14:59.706Z,36.80
2022-12-26T07:17:33.386Z,35.30
2022-12-26T07:20:06.011Z,39.55
2022-12-26T07:22:38.427Z,38.45
2022-12-26T07:25:10.482Z,38.83
2022-12-26T07:27:43.072Z,57.80
2022-12-26T07:30:15.151Z,51.13
2022-12-26T07:32:47.155Z,43.50
2022-12-26T07:35:19.220Z,69.80
2022-12-26T07:37:52.003Z,53.03
2022-12-26T07:40:24.004Z,48.00
2022-12-26T07:42:55.938Z,45.17
2022-12-26T07:45:28.036Z,47.22
2022-12-26T07:48:01.318Z,39.10
2022-12-26T07:50:33.205Z,37.67
2022-12-26T07:53:05.284Z,37.63
2022-12-26T07:55:37.154Z,38.15
2022-12-26T07:58:09.140Z,39.85
2022-12-26T08:00:41.142Z,35.53
2022-12-26T08:03:13.476Z,33.38
2022-12-26T08:05:47.862Z,35.15
2022-12-26T08:08:20.646Z,33.25
2022-12-26T08:11:03.491Z,56.70
2022-12-26T08:13:35.851Z,98.20
2022-12-26T08:16:09.400Z,36.55
2022-12-26T08:18:42.036Z,32.20
2022-12-26T08:21:14.326Z,31.42
2022-12-26T08:23:48.362Z,31.83
2022-12-26T08:26:23.388Z,33.35
2022-12-26T08:28:56.901Z,33.88
2022-12-26T08:31:28.869Z,34.38
2022-12-26T08:34:00.875Z,33.67
2022-12-26T08:36:34.407Z,31.65
2022-12-26T08:39:06.494Z,35.88
2022-12-26T08:41:38.395Z,32.50
2022-12-26T08:44:29.037Z,29.65
2022-12-26T08:47:01.300Z,29.58
2022-12-26T08:49:33.228Z,32.55
2022-12-26T08:52:05.186Z,38.03
2022-12-26T08:54:37.060Z,27.77
2022-12-26T08:57:09.610Z,28.27
2022-12-26T08:59:41.828Z,25.08
2022-12-26T09:02:13.917Z,28.38
2022-12-26T09:04:46.092Z,26.60
2022-12-26T09:07:18.445Z,26.70
2022-12-26T09:09:50.380Z,30.17
2022-12-26T09:12:22.253Z,30.48
2022-12-26T09:14:54.199Z,25.08
2022-12-26T09:17:28.075Z,28.98
2022-12-26T09:20:00.137Z,30.98
2022-12-26T09:22:51.000Z,29.70
2022-12-26T09:25:25.528Z,32.45
2022-12-26T09:27:59.460Z,28.70
2022-12-26T09:30:31.756Z,29.88
2022-12-26T09:33:07.851Z,35.35
2022-12-26T09:35:41.253Z,37.15
2022-12-26T09:38:13.478Z,38.63
2022-12-26T09:41:04.283Z,36.88
2022-12-26T09:44:04.235Z,36.90
2022-12-26T09:46:44.349Z,37.17
2022-12-26T09:49:24.273Z,38.95
2022-12-26T09:52:00.830Z,37.13
2022-12-26T09:54:47.671Z,38.60
2022-12-26T09:57:36.267Z,38.63
2022-12-26T10:00:21.238Z,36.85
2022-12-26T10:02:57.115Z,32.60
2022-12-26T10:05:38.787Z,38.95
2022-12-26T10:08:40.719Z,35.75
2022-12-26T10:11:28.744Z,35.67
2022-12-26T10:14:08.556Z,37.53
2022-12-26T10:16:58.127Z,37.83
2022-12-26T10:19:54.924Z,39.60
2022-12-26T10:22:51.158Z,42.95
2022-12-26T10:25:38.798Z,40.42
2022-12-26T10:28:32.156Z,47.08
2022-12-26T10:31:12.515Z,40.58
2022-12-26T10:33:56.967Z,42.08
2022-12-26T10:36:35.316Z,42.17
2022-12-26T10:39:25.470Z,41.78
2022-12-26T10:42:03.767Z,42.25
2022-12-26T10:44:35.669Z,44.03
2022-12-26T10:47:15.883Z,47.38
2022-12-26T10:49:49.102Z,44.78
2022-12-26T10:52:26.387Z,46.78
2022-12-26T10:55:29.345Z,44.42
2022-12-26T10:57:53.225Z,47.13
2022-12-26T11:00:28.002Z,49.72
2022-12-26T11:03:07.797Z,50.92
2022-12-26T11:06:10.050Z,50.40
2022-12-26T11:08:49.958Z,59.05
2022-12-26T11:11:25.394Z,57.90
2022-12-26T11:14:03.381Z,56.92
2022-12-26T11:16:38.986Z,56.95
2022-12-26T11:19:52.726Z,54.83
2022-12-26T11:22:27.454Z,57.72
2022-12-26T11:25:08.320Z,60.50
2022-12-26T11:27:46.379Z,61.30
2022-12-26T11:30:18.589Z,60.78
2022-12-26T11:33:19.453Z,57.85
2022-12-26T11:35:57.555Z,63.70
2022-12-26T11:38:44.449Z,60.30
2022-12-26T11:41:36.896Z,59.95
2022-12-26T11:44:14.942Z,59.15
2022-12-26T11:47:06.282Z,58.00
2022-12-26T11:49:39.814Z,60.60
2022-12-26T11:52:38.106Z,56.35
2022-12-26T11:55:30.325Z,55.92
2022-12-26T11:58:06.153Z,53.67
2022-12-26T12:00:39.224Z,54.58
2022-12-26T12:03:34.489Z,55.97
2022-12-26T12:06:15.280Z,57.30
2022-12-26T12:09:11.853Z,55.38
2022-12-26T12:12:07.644Z,54.25
2022-12-26T12:15:13.002Z,51.05
2022-12-26T12:18:06.485Z,55.38
2022-12-26T12:20:52.187Z,52.88
2022-12-26T12:23:58.773Z,57.42
2022-12-26T12:26:55.808Z,59.85
2022-12-26T12:30:13.182Z,56.42
2022-12-26T12:33:00.773Z,62.17
2022-12-26T12:35:51.796Z,74.13
2022-12-26T12:38:32.353Z,64.25
2022-12-26T12:41:10.147Z,62.07
2022-12-26T12:43:51.045Z,57.65
2022-12-26T12:46:46.827Z,57.83
2022-12-26T12:49:26.951Z,59.50
2022-12-26T12:52:22.386Z,64.82
2022-12-26T12:55:16.042Z,59.88
2022-12-26T12:58:11.030Z,64.80
2022-12-26T13:01:13.840Z,61.55
2022-12-26T13:04:03.001Z,73.93
2022-12-26T13:06:52.153Z,74.10
2022-12-26T13:09:33.029Z,78.30
2022-12-26T13:12:14.852Z,72.70
2022-12-26T13:15:15.868Z,74.13
2022-12-26T13:17:56.477Z,74.15
2022-12-26T13:20:42.625Z,70.23
2022-12-26T13:24:00.769Z,75.88
2022-12-26T13:26:37.922Z,72.57
2022-12-26T13:29:20.031Z,75.63
2022-12-26T13:31:53.596Z,76.88
2022-12-26T13:34:27.059Z,71.95
2022-12-26T13:37:01.181Z,76.20
2022-12-26T13:39:37.166Z,75.25
2022-12-26T13:42:27.586Z,75.95
2022-12-26T13:45:40.221Z,72.47
2022-12-26T13:48:17.989Z,75.28
2022-12-26T13:50:55.675Z,70.28
2022-12-26T13:53:39.249Z,76.25
2022-12-26T13:56:45.873Z,71.88
2022-12-26T13:59:28.290Z,70.18
2022-12-26T14:03:16.834Z,78.63
2022-12-26T14:06:14.478Z,76.00
2022-12-26T14:08:58.548Z,77.05
2022-12-26T14:11:52.322Z,75.80
2022-12-26T14:15:03.155Z,79.82
2022-12-26T14:17:41.699Z,78.45
2022-12-26T14:20:19.670Z,76.93
2022-12-26T14:23:07.530Z,76.80
2022-12-26T14:25:50.932Z,76.35
2022-12-26T14:28:35.307Z,70.45
2022-12-26T14:31:45.457Z,74.53
2022-12-26T14:34:32.131Z,74.95
2022-12-26T14:37:10.059Z,74.82
2022-12-26T14:40:06.749Z,70.45
2022-12-26T14:43:13.905Z,70.88
2022-12-26T14:45:51.722Z,71.72
2022-12-26T14:48:23.732Z,72.88
2022-12-26T14:51:04.479Z,76.40
2022-12-26T14:53:36.909Z,77.77
2022-12-26T14:56:10.359Z,76.70
2022-12-26T14:58:49.442Z,73.13
2022-12-26T15:01:24.344Z,71.93
2022-12-26T15:04:15.185Z,70.28
2022-12-26T15:07:20.724Z,234.37
2022-12-26T15:10:22.735Z,203.85
2022-12-26T15:13:30.421Z,73.90
2022-12-26T15:16:22.017Z,76.68
2022-12-26T15:25:08.368Z,69.78
2022-12-26T15:28:00.339Z,69.47
2022-12-26T15:30:57.398Z,77.70
2022-12-26T15:33:40.999Z,73.13
2022-12-26T15:36:24.916Z,73.57
2022-12-26T15:38:56.818Z,75.82
2022-12-26T15:41:45.864Z,67.45
2022-12-26T15:44:30.475Z,72.88
2022-12-26T15:47:33.431Z,69.88
2022-12-26T15:50:18.579Z,68.18
2022-12-26T15:53:07.016Z,73.68
2022-12-26T15:56:06.837Z,71.15
2022-12-26T15:58:50.722Z,70.50
2022-12-26T16:01:43.694Z,72.57
2022-12-26T16:04:49.885Z,72.93
2022-12-26T16:07:46.753Z,109.43
2022-12-26T16:10:24.649Z,97.05
2022-12-26T16:13:06.354Z,68.53
2022-12-26T16:15:48.952Z,69.80
2022-12-26T16:18:26.897Z,74.95
2022-12-26T16:21:38.046Z,72.25
2022-12-26T16:24:12.739Z,66.80
2022-12-26T16:26:47.101Z,77.03
2022-12-26T16:29:21.296Z,162.23
2022-12-26T16:32:03.491Z,78.47
2022-12-26T16:34:40.011Z,80.78
2022-12-26T16:37:19.650Z,79.22
2022-12-26T16:40:18.300Z,78.93
2022-12-26T16:43:01.576Z,76.15
2022-12-26T16:45:37.206Z,82.75
2022-12-26T16:48:13.605Z,81.78
2022-12-26T16:50:50.661Z,79.63
2022-12-26T16:53:36.352Z,78.15
2022-12-26T16:56:26.895Z,79.68
2022-12-26T16:59:17.116Z,81.68
2022-12-26T17:01:58.472Z,79.88
2022-12-26T17:04:31.414Z,80.22
2022-12-26T17:07:08.350Z,83.75
2022-12-26T17:09:45.401Z,81.40
2022-12-26T17:12:28.968Z,79.68
2022-12-26T17:15:02.663Z,75.18
2022-12-26T17:17:37.519Z,80.50
2022-12-26T17:20:25.003Z,80.68
2022-12-26T17:22:58.325Z,75.95
2022-12-26T17:25:33.964Z,74.68
2022-12-26T17:28:09.248Z,82.50
2022-12-26T17:30:53.324Z,89.05
2022-12-26T17:33:29.040Z,84.78
2022-12-26T17:39:20.667Z,84.88
2022-12-26T17:41:58.094Z,89.55
2022-12-26T17:44:44.880Z,87.88
2022-12-26T17:47:20.990Z,90.93
2022-12-26T17:49:54.552Z,85.07
2022-12-26T17:52:28.890Z,94.22
2022-12-26T17:55:03.146Z,81.22
2022-12-26T17:57:35.151Z,83.95
2022-12-26T18:00:15.719Z,81.03
2022-12-26T18:02:48.332Z,94.10
2022-12-26T18:05:21.042Z,84.03
2022-12-26T18:07:53.247Z,100.43
2022-12-26T18:10:29.137Z,93.00
2022-12-26T18:13:01.752Z,95.57
2022-12-26T18:15:33.860Z,103.18
2022-12-26T18:18:05.933Z,113.90
2022-12-26T18:20:37.872Z,117.55
2022-12-26T18:23:11.111Z,114.45
2022-12-26T18:25:43.304Z,94.68
2022-12-26T18:28:17.472Z,91.63
2022-12-26T18:30:49.513Z,83.45
2022-12-26T18:33:21.467Z,84.95
2022-12-26T18:35:54.007Z,89.22
2022-12-26T18:38:25.899Z,86.47
2022-12-26T18:41:01.105Z,91.90
2022-12-26T18:43:33.204Z,87.72
2022-12-26T18:46:05.398Z,101.60
2022-12-26T18:48:37.335Z,97.28
2022-12-26T18:51:09.491Z,94.68
2022-12-26T18:53:41.573Z,90.13
2022-12-26T18:56:18.950Z,86.43
2022-12-26T18:58:57.394Z,88.78
2022-12-26T19:01:29.976Z,89.68
2022-12-26T19:04:02.044Z,95.85
2022-12-26T19:06:35.339Z,101.38
2022-12-26T19:09:08.946Z,96.78
2022-12-26T19:11:42.198Z,98.68
2022-12-26T19:14:20.149Z,89.25
2022-12-26T19:16:52.160Z,93.38
2022-12-26T19:19:26.781Z,155.63
2022-12-26T19:21:58.806Z,134.60
2022-12-26T19:24:30.795Z,102.72
2022-12-26T19:27:03.075Z,129.95
2022-12-26T19:29:35.061Z,93.28
2022-12-26T19:32:06.976Z,81.30
2022-12-26T19:34:38.938Z,93.80
2022-12-26T19:37:10.876Z,88.03
2022-12-26T19:39:42.813Z,85.10
2022-12-26T19:42:14.892Z,91.90
2022-12-26T19:44:47.996Z,100.13
2022-12-26T19:47:20.206Z,89.68
2022-12-26T19:49:52.176Z,91.03
2022-12-26T19:52:27.906Z,102.15
2022-12-26T19:55:00.892Z,94.93
2022-12-26T19:57:33.324Z,90.95
2022-12-26T20:00:06.583Z,162.25
2022-12-26T20:02:43.949Z,99.97
2022-12-26T20:05:16.124Z,97.60
2022-12-26T20:07:48.238Z,92.07
2022-12-26T20:10:20.157Z,88.82
2022-12-26T20:12:52.537Z,86.65
2022-12-26T20:15:24.436Z,91.63
2022-12-26T20:17:59.614Z,91.72
2022-12-26T20:20:31.787Z,87.85
2022-12-26T20:23:04.205Z,82.20
2022-12-26T20:25:38.679Z,100.43
2022-12-26T20:28:11.255Z,88.57
2022-12-26T20:30:43.498Z,87.45
2022-12-26T20:33:15.445Z,87.55
2022-12-26T20:35:47.363Z,92.20
2022-12-26T20:38:20.208Z,138.70
2022-12-26T20:40:52.377Z,257.20
2022-12-26T20:43:25.252Z,90.20
2022-12-26T20:45:59.761Z,90.50
2022-12-26T20:48:36.416Z,91.47
2022-12-26T20:51:11.995Z,100.00
2022-12-26T20:53:44.014Z,101.15
2022-12-26T20:56:16.137Z,98.65
2022-12-26T20:58:48.148Z,94.15
2022-12-26T21:01:21.972Z,92.82
2022-12-26T21:03:55.991Z,84.93
2022-12-26T21:06:30.744Z,92.60
2022-12-26T21:09:04.618Z,100.85
2022-12-26T21:11:39.411Z,91.32
2022-12-26T21:14:19.652Z,93.10
2022-12-26T21:16:54.559Z,93.55
2022-12-26T21:19:29.309Z,89.97
2022-12-26T21:22:01.289Z,97.65
2022-12-26T21:24:33.230Z,99.55
2022-12-26T21:27:05.281Z,101.97
2022-12-26T21:29:38.671Z,99.55
2022-12-26T21:32:11.701Z,206.32
2022-12-26T21:34:44.266Z,201.60
2022-12-26T21:37:35.213Z,99.55
2022-12-26T21:40:08.157Z,96.90
2022-12-26T21:42:40.165Z,99.75
2022-12-26T21:45:16.307Z,91.93
2022-12-26T21:47:48.246Z,95.20
2022-12-26T21:50:20.507Z,93.90
2022-12-26T21:52:52.447Z,92.45
2022-12-26T21:55:27.018Z,91.80
2022-12-26T21:58:00.958Z,95.90
2022-12-26T22:00:35.410Z,102.20
2022-12-26T22:03:25.971Z,88.00
2022-12-26T22:05:58.145Z,90.32
2022-12-26T22:08:30.071Z,86.40
2022-12-26T22:11:20.578Z,91.07
2022-12-26T22:13:52.512Z,85.60
2022-12-26T22:16:25.696Z,86.63
2022-12-26T22:18:57.642Z,90.25
2022-12-26T22:21:29.568Z,88.22
2022-12-26T22:24:01.798Z,95.80
2022-12-26T22:26:33.739Z,91.03
2022-12-26T22:29:05.664Z,88.57
2022-12-26T22:31:38.189Z,94.87
2022-12-26T22:34:13.503Z,93.13
2022-12-26T22:36:45.366Z,87.72
2022-12-26T22:39:18.044Z,94.68
2022-12-26T22:41:49.967Z,91.47
2022-12-26T22:44:23.403Z,91.15
2022-12-26T22:46:57.101Z,95.47
2022-12-26T22:49:29.397Z,85.63
2022-12-26T22:52:01.350Z,86.85
2022-12-26T22:54:33.345Z,94.38
2022-12-26T22:57:05.293Z,85.28
2022-12-26T23:00:07.122Z,86.15
2022-12-26T23:02:29.646Z,80.10
2022-12-26T23:05:02.122Z,84.18
2022-12-26T23:07:34.412Z,80.95
2022-12-26T23:10:07.736Z,82.03
2022-12-26T23:12:46.019Z,79.90
2022-12-26T23:15:22.435Z,83.63
2022-12-26T23:18:45.412Z,81.03
2022-12-26T23:21:38.958Z,79.57
2022-12-26T23:24:20.542Z,82.28
2022-12-26T23:29:44.373Z,78.22
2022-12-26T23:32:16.356Z,88.45
2022-12-26T23:34:48.324Z,78.35
2022-12-26T23:37:20.290Z,81.75
2022-12-26T23:39:52.355Z,89.20
2022-12-26T23:42:24.574Z,83.55
2022-12-26T23:44:56.926Z,86.80
2022-12-26T23:47:29.214Z,82.25
2022-12-26T23:50:01.126Z,81.47
2022-12-26T23:52:33.545Z,82.32
2022-12-26T23:55:06.130Z,79.63
2022-12-26T23:57:38.130Z,88.80
